M I D A S
Marine Information and Data Acquisition System
Tripno 753 of the Zeeleeuw from 2004-07-29 09:05:46 to 2004-07-29 12:11:41
Back to CruiseResearch ActivitiesStationsMapUnderway DataData graphs

EquipmentUnitsComment
TimeDGPSUTC
LatitudeDGPSDM.mWGS84
LongitudeDGPSDM.mWGS84
HeadingGyrodeg 
SOGDGPSknotsSpeed over ground
COGDGPSdegCourse over ground
DepthEcho soundermeters200 kHz
Missing or incorrect values are displayed as -999
Navigation data collected by the RV Zeeleeuw from 2004-07-29 09:05:46 to 2004-07-29 12:11:41
                                                                                    Next 1000 lines
Time Latitude Longitude Heading SOG COG Depth
2004-07-29 09:05:56 51°11.018 2°27.173 248.8 11.9 245 23.9
2004-07-29 09:06:01 51°11.011 2°27.149 248.5 12 245 24.5
2004-07-29 09:06:06 51°11.005 2°27.125 248.6 12 247 24.6
2004-07-29 09:06:11 51°10.998 2°27.101 249.4 11.9 246 24.2
2004-07-29 09:06:14 51°10.994 2°27.087 249.4 11.9 246 24.5
2004-07-29 09:06:21 51°10.984 2°27.053 248.9 12 245 24.1
2004-07-29 09:06:25 51°10.979 2°27.034 248.3 11.9 246 23.9
2004-07-29 09:06:29 51°10.973 2°27.015 248.3 11.9 245 23.8
2004-07-29 09:06:36 51°10.963 2°26.982 248.3 11.9 246 23.9
2004-07-29 09:06:41 51°10.956 2°26.958 248.7 12 245 23.7
2004-07-29 09:06:46 51°10.95 2°26.933 248.7 12 247 23.7
2004-07-29 09:06:50 51°10.944 2°26.914 249 12 246 23.5
2004-07-29 09:06:54 51°10.939 2°26.895 249.3 12 247 23.5
2004-07-29 09:07:01 51°10.93 2°26.86 249.6 12 247 23.8
2004-07-29 09:07:06 51°10.924 2°26.836 249.9 12 248 23.7
2004-07-29 09:07:10 51°10.919 2°26.816 250.6 12 249 23.5
2004-07-29 09:07:16 51°10.915 2°26.785 253.3 12 254 23.7
2004-07-29 09:07:21 51°10.912 2°26.759 259.1 11.9 261 23.8
2004-07-29 09:07:25 51°10.911 2°26.738 262.8 11.9 264 23.9
2004-07-29 09:07:30 51°10.911 2°26.712 265.6 11.9 266 23.6
2004-07-29 09:07:35 51°10.911 2°26.685 268.9 11.9 272 23.7
2004-07-29 09:07:41 51°10.913 2°26.654 272.6 11.9 277 23.6
2004-07-29 09:07:46 51°10.917 2°26.628 277.2 11.9 281 23.9
2004-07-29 09:07:50 51°10.921 2°26.608 282.3 12 285 24.1
2004-07-29 09:07:56 51°10.928 2°26.578 286.2 12 288 23.9
2004-07-29 09:08:01 51°10.934 2°26.553 289.5 12.1 292 23.9
2004-07-29 09:08:05 51°10.939 2°26.533 291.6 12.2 294 23.7
2004-07-29 09:08:10 51°10.947 2°26.509 293.5 12.2 295 23.8
2004-07-29 09:08:16 51°10.955 2°26.479 294.4 12.2 295 23.6
2004-07-29 09:08:21 51°10.963 2°26.455 294.8 12.3 296 23.9
2004-07-29 09:08:26 51°10.97 2°26.43 295.1 12.3 295 23.1
2004-07-29 09:08:30 51°10.977 2°26.411 295.2 12.4 297 23.4
2004-07-29 09:08:36 51°10.986 2°26.382 295.8 12.4 298 23
2004-07-29 09:08:41 51°10.995 2°26.358 296.3 12.4 303 22.6
2004-07-29 09:08:46 51°11.006 2°26.337 300.1 12.5 306 22.4
2004-07-29 09:08:50 51°11.015 2°26.32 305.2 12.5 312 22.1
2004-07-29 09:08:56 51°11.03 2°26.297 310.2 12.5 314 22.1
2004-07-29 09:09:01 51°11.043 2°26.279 314.3 12.6 319 21.7
2004-07-29 09:09:06 51°11.057 2°26.261 316.9 12.7 321 21.4
2004-07-29 09:09:10 51°11.068 2°26.247 319.3 12.7 323 21
2004-07-29 09:09:16 51°11.085 2°26.228 321.2 12.8 324 20.6
2004-07-29 09:09:21 51°11.1 2°26.212 322.4 12.8 326 20.2
2004-07-29 09:09:26 51°11.115 2°26.196 323.4 12.8 326 19.9
2004-07-29 09:09:30 51°11.127 2°26.183 323.8 12.8 326 19.4
2004-07-29 09:09:33 51°11.136 2°26.174 324.3 12.8 327 18.9
2004-07-29 09:09:42 51°11.163 2°26.147 324.1 12.9 329 18.7
2004-07-29 09:09:48 51°11.182 2°26.132 326.5 12.9 334 18.1
2004-07-29 09:09:53 51°11.199 2°26.122 332.1 13 339 17.8
2004-07-29 09:09:58 51°11.216 2°26.113 336.1 13 342 17.1
2004-07-29 09:10:02 51°11.231 2°26.109 340.8 13.1 347 16.8
2004-07-29 09:10:05 51°11.241 2°26.106 345.6 13.2 350 16.4
2004-07-29 09:10:12 51°11.267 2°26.101 348.9 13.3 355 16.3
2004-07-29 09:10:18 51°11.289 2°26.1 352.6 13.4 357 15.8
2004-07-29 09:10:22 51°11.304 2°26.099 354.2 13.4 359 15.5
2004-07-29 09:10:27 51°11.323 2°26.099 356.3 13.5 359 15.2
2004-07-29 09:10:33 51°11.345 2°26.098 357 13.5   14.9
2004-07-29 09:10:38 51°11.364 2°26.099 357.8 13.5 1 14.5
2004-07-29 09:10:41 51°11.375 2°26.099 358.4 13.5 1 14
2004-07-29 09:10:48 51°11.402 2°26.1 358.7 13.6 1 13.5
2004-07-29 09:10:51 51°11.413 2°26.1 358.7 13.6 1 13.1
2004-07-29 09:10:57 51°11.436 2°26.1 358.5 13.6   13.1
2004-07-29 09:11:01 51°11.451 2°26.101 357.9 13.6   13.1
2004-07-29 09:11:08 51°11.477 2°26.101 357.9 13.6   12.8
2004-07-29 09:11:13 51°11.496 2°26.101 357.8 13.6 1 12.3
2004-07-29 09:11:18 51°11.515 2°26.102 357.9 13.7 1 11.6
2004-07-29 09:11:23 51°11.534 2°26.103 358.3 13.7 2 12.8
2004-07-29 09:11:28 51°11.553 2°26.103 358.9 13.7 2 13.8
2004-07-29 09:11:32 51°11.568 2°26.104 359.1 13.8 1 14.7
2004-07-29 09:11:38 51°11.592 2°26.103 358.4 13.9   15.4
2004-07-29 09:11:42 51°11.607 2°26.103 357.8 13.9   16.5
2004-07-29 09:11:48 51°11.63 2°26.103 357.8 13.9 359 17.7
2004-07-29 09:11:53 51°11.65 2°26.103 357.7 14   19.2
2004-07-29 09:11:55 51°11.657 2°26.103 357.7 14   19.7
2004-07-29 09:12:01 51°11.681 2°26.103 358.3 14   20.1
2004-07-29 09:12:08 51°11.708 2°26.103 358.7 14   20.2
2004-07-29 09:12:13 51°11.728 2°26.103 358.7 14   20.5
2004-07-29 09:12:17 51°11.743 2°26.103 358.5 14   20.9
2004-07-29 09:12:22 51°11.763 2°26.103 358.5 14.1   21
2004-07-29 09:12:28 51°11.786 2°26.103 358.1 14.1   21.5
2004-07-29 09:12:33 51°11.806 2°26.103 358.1 14.1   21.9
2004-07-29 09:12:38 51°11.825 2°26.103 358.2 14.1   22.8
2004-07-29 09:12:42 51°11.841 2°26.102 358.4 14.1   22.5
2004-07-29 09:12:47 51°11.861 2°26.102 358.5 14.1   22.5
2004-07-29 09:12:53 51°11.884 2°26.102 358.7 14.1   22.8
2004-07-29 09:12:58 51°11.904 2°26.103 358.8 14.2   23.2
2004-07-29 09:13:01 51°11.916 2°26.103 358.8 14.2   23.6
2004-07-29 09:13:08 51°11.943 2°26.103 358.8 14.2   23.8
2004-07-29 09:13:13 51°11.963 2°26.103 359 14.2   24.4
2004-07-29 09:13:18 51°11.983 2°26.102 358.8 14.2   25
2004-07-29 09:13:22 51°11.999 2°26.102 358.5 14.2 359 25.7
2004-07-29 09:13:28 51°12.022 2°26.102 358 14.3 359 26.1
2004-07-29 09:13:33 51°12.042 2°26.102 358.3 14.3   26.3
2004-07-29 09:13:38 51°12.062 2°26.102 358.8 14.3 1 26.8
2004-07-29 09:13:42 51°12.078 2°26.102 359.2 14.3 1 26.9
2004-07-29 09:13:48 51°12.102 2°26.103 359.4 14.3 1 27.4
2004-07-29 09:13:52 51°12.118 2°26.104 359.8 14.3 1 27.4
2004-07-29 09:13:58 51°12.141 2°26.105 359.9 14.3 2 27.5
2004-07-29 09:14:02 51°12.157 2°26.105 359.9 14.3 1 27.9
2004-07-29 09:14:05 51°12.169 2°26.106 359.8 14.3 1 27.9
2004-07-29 09:14:12 51°12.197 2°26.106 359.2 14.2   28
2004-07-29 09:14:18 51°12.221 2°26.106 358.6 14.3   28.1
2004-07-29 09:14:22 51°12.237 2°26.106 358.4 14.3   28.4
2004-07-29 09:14:27 51°12.256 2°26.106 358.4 14.3   28.2
2004-07-29 09:14:33 51°12.28 2°26.106 358.5 14.3   28.4
2004-07-29 09:14:37 51°12.296 2°26.106 358.5 14.3   28.3
2004-07-29 09:14:42 51°12.316 2°26.105 358.4 14.3   28.4
2004-07-29 09:14:48 51°12.339 2°26.106 358.5 14.3   28.7
2004-07-29 09:14:52 51°12.355 2°26.107 358.9 14.4 3 28.3
2004-07-29 09:14:56 51°12.371 2°26.109 1.4 14.4 4 28.5
2004-07-29 09:15:00 51°12.387 2°26.111 3.7 14.4 6 28
2004-07-29 09:15:08 51°12.419 2°26.118 5.5 14.4 7 28.4
2004-07-29 09:15:13 51°12.438 2°26.123 7.4 14.4 9 28.1
2004-07-29 09:15:18 51°12.458 2°26.129 8.7 14.5 9 28.1
2004-07-29 09:15:22 51°12.474 2°26.133 9.3 14.4 11 28.3
2004-07-29 09:15:28 51°12.498 2°26.141 10.1 14.5 11 28.4
2004-07-29 09:15:33 51°12.517 2°26.147 10.4 14.5 11 28
2004-07-29 09:15:38 51°12.537 2°26.153 10.7 14.5 11 28
2004-07-29 09:15:41 51°12.549 2°26.157 10.7 14.5 11 28.1
2004-07-29 09:15:48 51°12.577 2°26.166 10.7 14.5 11 28.2
2004-07-29 09:15:53 51°12.597 2°26.171 10.2 14.5 11 28.1
2004-07-29 09:15:58 51°12.616 2°26.177 10.1 14.5 10 28.1
2004-07-29 09:16:03 51°12.636 2°26.183 9.9 14.5 10 27.8
2004-07-29 09:16:08 51°12.656 2°26.189 9.9 14.5 10 27.4
2004-07-29 09:16:12 51°12.672 2°26.193 9.6 14.5 10 27.5
2004-07-29 09:16:18 51°12.696 2°26.2 9.5 14.5 10 27.7
2004-07-29 09:16:22 51°12.711 2°26.204 9.5 14.5 9 27.9
2004-07-29 09:16:28 51°12.735 2°26.211 9.1 14.6 10 27.9
2004-07-29 09:16:33 51°12.755 2°26.216 9.4 14.5 10 28
2004-07-29 09:16:38 51°12.775 2°26.222 9.7 14.5 11 28.1
2004-07-29 09:16:42 51°12.791 2°26.227 9.9 14.5 10 28
2004-07-29 09:16:48 51°12.814 2°26.233 9.6 14.5 10 28.1
2004-07-29 09:16:53 51°12.834 2°26.239 9.4 14.5 10 28.2
2004-07-29 09:16:58 51°12.854 2°26.245 9.7 14.5 10 28.7
2004-07-29 09:17:02 51°12.87 2°26.25 9.7 14.5 11 28.4
2004-07-29 09:17:08 51°12.894 2°26.256 9.9 14.5 11 28.2
2004-07-29 09:17:13 51°12.913 2°26.262 9.8 14.5 10 28.1
2004-07-29 09:17:18 51°12.933 2°26.268 9.7 14.5 10 27.8
2004-07-29 09:17:22 51°12.949 2°26.272 9.5 14.5 10 28.1
2004-07-29 09:17:28 51°12.973 2°26.279 9.5 14.5 10 28.3
2004-07-29 09:17:33 51°12.992 2°26.284 9.1 14.5 10 28.5
2004-07-29 09:17:38 51°13.012 2°26.29 9.4 14.5 10 28.6
2004-07-29 09:17:42 51°13.028 2°26.294 9.7 14.5 10 28.5
2004-07-29 09:17:48 51°13.052 2°26.301 9.6 14.5 10 28.5
2004-07-29 09:17:52 51°13.068 2°26.306 9.7 14.5 10 28.7
2004-07-29 09:17:58 51°13.091 2°26.313 9.8 14.5 10 28.5
2004-07-29 09:18:02 51°13.107 2°26.317 9.8 14.5 10 28.6
2004-07-29 09:18:05 51°13.119 2°26.32 9.7 14.5 10 28.7
2004-07-29 09:18:12 51°13.147 2°26.328 9.4 14.5 10 29
2004-07-29 09:18:18 51°13.171 2°26.334 9.4 14.5 10 29.3
2004-07-29 09:18:22 51°13.187 2°26.339 9.4 14.5 10 29.3
2004-07-29 09:18:28 51°13.211 2°26.345 9.6 14.5 10 29.3
2004-07-29 09:18:33 51°13.23 2°26.351 9.9 14.5 11 28.9
2004-07-29 09:18:38 51°13.25 2°26.357 10.2 14.5 11 29.1
2004-07-29 09:18:41 51°13.262 2°26.36 10.2 14.5 11 29.5
2004-07-29 09:18:48 51°13.29 2°26.369 10.3 14.5 11 29.8
2004-07-29 09:18:52 51°13.306 2°26.374 10.2 14.5 12 29.4
2004-07-29 09:18:57 51°13.325 2°26.382 11.1 14.6 14 28.9
2004-07-29 09:19:02 51°13.344 2°26.392 15.2 14.6 18 28.8
2004-07-29 09:19:08 51°13.367 2°26.406 18.7 14.6 21 28.8
2004-07-29 09:19:12 51°13.382 2°26.417 22.3 14.6 24 29
2004-07-29 09:19:18 51°13.404 2°26.433 24.8 14.7 25 29.1
2004-07-29 09:19:22 51°13.419 2°26.445 26.6 14.7 27 29.3
2004-07-29 09:19:25 51°13.429 2°26.454 27.7 14.7 27 29.3
2004-07-29 09:19:33 51°13.458 2°26.478 28.4 14.7 28 28.8
2004-07-29 09:19:38 51°13.476 2°26.494 28.8 14.8 28 29.4
2004-07-29 09:19:42 51°13.491 2°26.506 29 14.8 28 29.6
2004-07-29 09:19:45 51°13.502 2°26.516 29.5 14.9 29 29.9
2004-07-29 09:19:52 51°13.527 2°26.538 30.3 14.8 31 29.6
2004-07-29 09:19:58 51°13.548 2°26.56 32.5 14.8 33 29.7
2004-07-29 09:20:02 51°13.561 2°26.574 34.6 14.9 33 29.7
2004-07-29 09:20:08 51°13.581 2°26.597 35.4 14.9 34 29.7
2004-07-29 09:20:12 51°13.595 2°26.612 37.1 14.9 36 29.7
2004-07-29 09:20:18 51°13.615 2°26.636 37.8 14.9 36 29.3
2004-07-29 09:20:21 51°13.625 2°26.648 38.5 14.9 37 29.4
2004-07-29 09:20:27 51°13.644 2°26.671 39 14.9 37 29.3
2004-07-29 09:20:33 51°13.664 2°26.695 39.4 14.9 37 29.3
2004-07-29 09:20:37 51°13.677 2°26.711 39.4 14.8 37 29.3
2004-07-29 09:20:42 51°13.693 2°26.731 39.8 14.8 37 29.3
2004-07-29 09:20:48 51°13.713 2°26.755 39.7 14.8 38 29.1
2004-07-29 09:20:53 51°13.729 2°26.777 40.1 14.9 40 29.1
2004-07-29 09:20:58 51°13.744 2°26.798 41.7 14.8 41 29
2004-07-29 09:21:02 51°13.757 2°26.815 43 14.8 41 29.2
2004-07-29 09:21:08 51°13.775 2°26.841 43.7 14.8 42 28.9
2004-07-29 09:21:13 51°13.79 2°26.864 43.9 14.9 42 28.9
2004-07-29 09:21:17 51°13.803 2°26.881 44.3 14.9 42 29.3
2004-07-29 09:21:22 51°13.818 2°26.903 44.3 14.9 42 29.1
2004-07-29 09:21:25 51°13.827 2°26.916 44.7 14.9 42 29.3
2004-07-29 09:21:33 51°13.852 2°26.952 44.8 14.9 42 29.2
2004-07-29 09:21:38 51°13.867 2°26.973 44.8 14.9 42 29
2004-07-29 09:21:41 51°13.877 2°26.986 44.5 14.9 42 29.2
2004-07-29 09:21:48 51°13.898 2°27.017 44.7 14.8 42 29.3
2004-07-29 09:21:52 51°13.911 2°27.035 44.7 14.9 42 29.4
2004-07-29 09:21:58 51°13.929 2°27.061 44.8 14.8 42 29.4
2004-07-29 09:22:02 51°13.941 2°27.078 44.4 14.8 42 29.2
2004-07-29 09:22:08 51°13.96 2°27.105 44.8 14.9 42 29.2
2004-07-29 09:22:13 51°13.975 2°27.127 44.8 14.9 42 29.4
2004-07-29 09:22:17 51°13.987 2°27.144 44.7 14.8 42 29.5
2004-07-29 09:22:21 51°14 2°27.162 44.4 14.8 41 29.8
2004-07-29 09:22:28 51°14.021 2°27.192 44.1 14.8 41 29.7
2004-07-29 09:22:30 51°14.028 2°27.201 43.5 14.8 41 29.8
2004-07-29 09:22:38 51°14.052 2°27.235 43.7 14.8 42 29.6
2004-07-29 09:22:41 51°14.061 2°27.248 43.7 14.8 41 29.7
2004-07-29 09:22:48 51°14.083 2°27.279 44 14.8 42 29.8
2004-07-29 09:22:53 51°14.098 2°27.3 44.1 14.8 42 29.9
2004-07-29 09:22:57 51°14.111 2°27.318 44.2 14.8 42 30
2004-07-29 09:23:02 51°14.126 2°27.34 44.2 14.8 42 30
2004-07-29 09:23:08 51°14.144 2°27.367 44.8 14.9 43 29.9
2004-07-29 09:23:12 51°14.156 2°27.385 45.1 14.9 43 30
2004-07-29 09:23:18 51°14.174 2°27.411 45.3 14.9 43 30.2
2004-07-29 09:23:22 51°14.186 2°27.429 45.5 14.9 43 30.2
2004-07-29 09:23:28 51°14.205 2°27.456 45 14.9 43 30.8
2004-07-29 09:23:32 51°14.217 2°27.474 44.7 14.9 42 30.8
2004-07-29 09:23:37 51°14.232 2°27.495 44.3 14.9 42 30.4
2004-07-29 09:23:41 51°14.244 2°27.513 44.2 14.9 42 30.4
2004-07-29 09:23:48 51°14.266 2°27.544 43.8 15 41 30.2
2004-07-29 09:23:53 51°14.281 2°27.566 43.7 14.9 42 30.1
2004-07-29 09:23:58 51°14.297 2°27.588 44.2 14.9 42 30.2
2004-07-29 09:24:02 51°14.309 2°27.606 44.8 14.9 43 30.7
2004-07-29 09:24:08 51°14.327 2°27.633 45.1 15 43 30.6
2004-07-29 09:24:10 51°14.333 2°27.642 44.8 14.9 42 30.4
2004-07-29 09:24:18 51°14.358 2°27.678 44.7 14.9 42 30.3
2004-07-29 09:24:21 51°14.367 2°27.691 44.3 14.9 42 30.3
2004-07-29 09:24:28 51°14.388 2°27.722 44.2 14.9 42 30.5
2004-07-29 09:24:33 51°14.404 2°27.743 43.5 14.9 41 30.4
2004-07-29 09:24:38 51°14.419 2°27.765 43.5 14.9 42 30.4
2004-07-29 09:24:41 51°14.429 2°27.778 43.3 14.9 41 30.5
2004-07-29 09:24:48 51°14.45 2°27.809 43.7 14.9 43 30.5
2004-07-29 09:24:53 51°14.466 2°27.831 44.3 14.9 43 30.8
2004-07-29 09:24:58 51°14.481 2°27.854 44.7 14.9 43 30.6
2004-07-29 09:25:01 51°14.49 2°27.867 44.9 14.9 43 30.7
2004-07-29 09:25:08 51°14.511 2°27.899 44.9 14.9 43 30.7
2004-07-29 09:25:13 51°14.526 2°27.921 45 14.9 43 30.5
2004-07-29 09:25:18 51°14.541 2°27.944 45 14.9 43 30.6
2004-07-29 09:25:21 51°14.55 2°27.957 44.7 14.9 42 30.7
2004-07-29 09:25:28 51°14.572 2°27.988 44.4 14.9 42 30.9
2004-07-29 09:25:32 51°14.584 2°28.006 44.2 14.9 42 30.9
2004-07-29 09:25:37 51°14.599 2°28.028 44.1 14.9 42 30.9
2004-07-29 09:25:41 51°14.612 2°28.045 43.7 14.9 42 31
2004-07-29 09:25:48 51°14.633 2°28.076 43.6 14.8 42 31
2004-07-29 09:25:53 51°14.649 2°28.098 43.7 15 42 30.8
2004-07-29 09:25:57 51°14.661 2°28.116 43.6 14.9 42 30.7
2004-07-29 09:26:01 51°14.673 2°28.133 43.8 14.9 42 30.7
2004-07-29 09:26:08 51°14.695 2°28.164 43.8 14.9 42 30.6
2004-07-29 09:26:13 51°14.71 2°28.186 43.7 14.9 42 30.7
2004-07-29 09:26:17 51°14.722 2°28.203 43.7 14.9 42 30.7
2004-07-29 09:26:22 51°14.738 2°28.226 43.7 14.9 42 30.6
2004-07-29 09:26:28 51°14.756 2°28.252 43.7 14.9 42 30.9
2004-07-29 09:26:32 51°14.769 2°28.269 43.9 14.9 42 31.2
2004-07-29 09:26:38 51°14.787 2°28.296 43.5 14.9 42 31.4
2004-07-29 09:26:42 51°14.799 2°28.313 43.5 14.9 42 31.3
2004-07-29 09:26:48 51°14.818 2°28.34 43.6 14.9 42 31.3
2004-07-29 09:26:53 51°14.833 2°28.361 43.6 14.9 42 31.1
2004-07-29 09:26:57 51°14.845 2°28.379 43.5 14.9 42 31.3
2004-07-29 09:27:02 51°14.861 2°28.401 43.6 14.9 42 31.3
2004-07-29 09:27:08 51°14.879 2°28.428 43.7 14.9 42 31.3
2004-07-29 09:27:13 51°14.894 2°28.45 44.2 14.9 42 31.2
2004-07-29 09:27:18 51°14.909 2°28.472 44.1 14.9 42 31
2004-07-29 09:27:22 51°14.921 2°28.49 44 14.8 42 31
2004-07-29 09:27:28 51°14.94 2°28.516 44.4 14.9 42 30.9
2004-07-29 09:27:33 51°14.955 2°28.538 44 14.8 42 31
2004-07-29 09:27:38 51°14.97 2°28.56 43.9 14.8 42 30.8
2004-07-29 09:27:42 51°14.983 2°28.577 43.9 14.8 42 30.7
2004-07-29 09:27:48 51°15.001 2°28.603 43.8 14.8 41 30.6
2004-07-29 09:27:53 51°15.017 2°28.625 43.7 14.8 42 30.4
2004-07-29 09:27:58 51°15.032 2°28.647 43.8 14.8 42 30.6
2004-07-29 09:28:02 51°15.044 2°28.665 44.1 14.8 42 30.9
2004-07-29 09:28:08 51°15.062 2°28.691 44.2 14.8 42 30.8
2004-07-29 09:28:13 51°15.078 2°28.713 44.3 14.8 43 30.8
2004-07-29 09:28:17 51°15.09 2°28.73 44.7 14.8 42 30.9
2004-07-29 09:28:21 51°15.102 2°28.748 44.9 14.8 43 30.9
2004-07-29 09:28:28 51°15.122 2°28.779 45.3 14.8 43 31.1
2004-07-29 09:28:33 51°15.137 2°28.802 45.5 14.8 43 31.2
2004-07-29 09:28:38 51°15.152 2°28.824 45.5 14.8 43 31
2004-07-29 09:28:41 51°15.161 2°28.837 45.2 14.7 43 31.3
2004-07-29 09:28:48 51°15.183 2°28.868 45 14.7 42 31.2
2004-07-29 09:28:53 51°15.198 2°28.89 44.6 14.7 42 30.9
2004-07-29 09:28:58 51°15.213 2°28.911 44.3 14.8 42 30.9
2004-07-29 09:29:01 51°15.222 2°28.924 43.6 14.7 41 31.1
2004-07-29 09:29:08 51°15.244 2°28.954 43.2 14.7 41 31.2
2004-07-29 09:29:13 51°15.259 2°28.976 43.2 14.7 42 31.2
2004-07-29 09:29:18 51°15.275 2°28.997 43.7 14.7 42 31.2
2004-07-29 09:29:21 51°15.284 2°29.01 44.2 14.7 42 31.2
2004-07-29 09:29:28 51°15.305 2°29.041 44.7 14.7 43 31.2
2004-07-29 09:29:32 51°15.317 2°29.059 44.9 14.7 43 31.1
2004-07-29 09:29:38 51°15.335 2°29.085 45.1 14.7 43 31.1
2004-07-29 09:29:42 51°15.347 2°29.103 45.6 14.8 43 31.5
2004-07-29 09:29:48 51°15.364 2°29.13 45.7 14.7 43 31.5
2004-07-29 09:29:53 51°15.379 2°29.152 45.8 14.7 44 31.5
2004-07-29 09:29:57 51°15.391 2°29.17 46.1 14.8 43 31.3
2004-07-29 09:30:01 51°15.403 2°29.188 45.4 14.8 43 31.4
2004-07-29 09:30:08 51°15.424 2°29.218 44.9 14.7 42 31.2
2004-07-29 09:30:13 51°15.439 2°29.24 44.4 14.7 42 31.2
2004-07-29 09:30:17 51°15.452 2°29.257 43.9 14.7 41 31
2004-07-29 09:30:21 51°15.464 2°29.274 43.6 14.7 42 31.3
2004-07-29 09:30:28 51°15.485 2°29.304 44.1 14.7 42 31.3
2004-07-29 09:30:33 51°15.5 2°29.327 44.8 14.7 43 31.3
2004-07-29 09:30:37 51°15.512 2°29.344 45.1 14.7 43 31.2
2004-07-29 09:30:41 51°15.524 2°29.362 45.2 14.7 43 31
2004-07-29 09:30:48 51°15.545 2°29.393 45.6 14.7 43 31
2004-07-29 09:30:53 51°15.56 2°29.415 45.8 14.7 43 31
2004-07-29 09:30:57 51°15.572 2°29.433 45.4 14.7 42 31
2004-07-29 09:31:01 51°15.584 2°29.45 45.2 14.7 43 30.9
2004-07-29 09:31:08 51°15.605 2°29.481 44.9 14.7 42 30.8
2004-07-29 09:31:13 51°15.62 2°29.502 44.2 14.7 42 31
2004-07-29 09:31:18 51°15.635 2°29.524 44.2 14.7 42 30.9
2004-07-29 09:31:21 51°15.645 2°29.537 44.2 14.7 42 31.1
2004-07-29 09:31:28 51°15.666 2°29.568 44.3 14.7 42 31.3
2004-07-29 09:31:33 51°15.681 2°29.589 44.3 14.7 42 30.9
2004-07-29 09:31:38 51°15.696 2°29.611 44.2 14.7 42 31
2004-07-29 09:31:41 51°15.705 2°29.624 44.4 14.7 42 31.3
2004-07-29 09:31:48 51°15.727 2°29.654 44.3 14.7 42 31.1
2004-07-29 09:31:52 51°15.739 2°29.672 44.3 14.7 42 30.7
2004-07-29 09:31:57 51°15.754 2°29.693 44.1 14.7 41 30.8
2004-07-29 09:32:01 51°15.767 2°29.71 43.6 14.7 41 30.5
2004-07-29 09:32:07 51°15.786 2°29.736 43.5 14.7 41 31
2004-07-29 09:32:12 51°15.801 2°29.757 43.5 14.8 41 31
2004-07-29 09:32:17 51°15.817 2°29.778 43.5 14.8 41 30.8
2004-07-29 09:32:21 51°15.829 2°29.795 43.5 14.7 41 31
2004-07-29 09:32:28 51°15.851 2°29.825 43.6 14.7 42 30.9
2004-07-29 09:32:33 51°15.866 2°29.847 43.7 14.7 41 30.9
2004-07-29 09:32:38 51°15.881 2°29.868 43.8 14.7 42 31.1
2004-07-29 09:32:41 51°15.89 2°29.882 44.2 14.7 42 31.1
2004-07-29 09:32:48 51°15.912 2°29.912 44.4 14.7 42 31.1
2004-07-29 09:32:53 51°15.927 2°29.934 44.5 14.7 42 31
2004-07-29 09:32:58 51°15.942 2°29.956 44.7 14.7 42 31.1
2004-07-29 09:33:01 51°15.951 2°29.969 44.6 14.7 42 31.2
2004-07-29 09:33:08 51°15.972 2°29.999 44.5 14.7 42 31.4
2004-07-29 09:33:13 51°15.987 2°30.021 44.7 14.7 42 31
2004-07-29 09:33:18 51°16.002 2°30.043 44.7 14.7 42 31.4
2004-07-29 09:33:21 51°16.011 2°30.056 44.8 14.7 43 31.4
2004-07-29 09:33:28 51°16.032 2°30.087 45 14.7 42 31.3
2004-07-29 09:33:33 51°16.047 2°30.109 45 14.8 43 31.1
2004-07-29 09:33:37 51°16.059 2°30.127 45.2 14.8 43 31.2
2004-07-29 09:33:42 51°16.074 2°30.149 45.2 14.7 43 31
2004-07-29 09:33:48 51°16.092 2°30.175 45.3 14.7 43 31
2004-07-29 09:33:53 51°16.107 2°30.198 45.2 14.8 43 31.2
2004-07-29 09:33:58 51°16.122 2°30.219 45 14.7 42 31.2
2004-07-29 09:34:02 51°16.135 2°30.237 44.6 14.7 42 31.2
2004-07-29 09:34:08 51°16.153 2°30.263 44.4 14.7 42 31.1
2004-07-29 09:34:13 51°16.168 2°30.284 44.1 14.7 41 31
2004-07-29 09:34:18 51°16.184 2°30.306 43.5 14.7 41 31
2004-07-29 09:34:22 51°16.196 2°30.323 43.4 14.7 42 31
2004-07-29 09:34:28 51°16.214 2°30.349 43.9 14.7 42 31.1
2004-07-29 09:34:33 51°16.229 2°30.371 44.1 14.7 42 31
2004-07-29 09:34:37 51°16.241 2°30.388 44.2 14.6 42 31.1
2004-07-29 09:34:42 51°16.256 2°30.41 44 14.7 41 31.1
2004-07-29 09:34:48 51°16.275 2°30.435 43.7 14.7 41 30.9
2004-07-29 09:34:52 51°16.287 2°30.453 43.5 14.7 41 31.2
2004-07-29 09:34:58 51°16.306 2°30.478 43.3 14.7 41 30.8
2004-07-29 09:35:02 51°16.318 2°30.496 43.5 14.7 42 31
2004-07-29 09:35:08 51°16.336 2°30.522 44.1 14.8 42 30.9
2004-07-29 09:35:13 51°16.351 2°30.544 44.1 14.8 42 30.7
2004-07-29 09:35:17 51°16.363 2°30.561 44.2 14.7 42 30.7
2004-07-29 09:35:22 51°16.379 2°30.583 44.1 14.7 42 30.8
2004-07-29 09:35:28 51°16.397 2°30.609 44.1 14.8 42 30.6
2004-07-29 09:35:33 51°16.412 2°30.63 43.7 14.7 42 30.7
2004-07-29 09:35:38 51°16.428 2°30.652 43.7 14.7 42 30.8
2004-07-29 09:35:42 51°16.44 2°30.67 44.1 14.7 42 30.7
2004-07-29 09:35:48 51°16.457 2°30.697 44.7 14.7 42 30.7
2004-07-29 09:35:53 51°16.473 2°30.719 44.6 14.7 42 30.6
2004-07-29 09:35:58 51°16.488 2°30.74 44.5 14.7 42 30.6
2004-07-29 09:36:00 51°16.494 2°30.749 44.1 14.8 41 30.4
2004-07-29 09:36:08 51°16.519 2°30.783 43.5 14.7 41 30.4
2004-07-29 09:36:13 51°16.535 2°30.803 43.4 14.7 40 30.7
2004-07-29 09:36:18 51°16.55 2°30.824 42.9 14.7 40 30.4
2004-07-29 09:36:21 51°16.56 2°30.837 42.7 14.7 40 30.3
2004-07-29 09:36:28 51°16.581 2°30.867 42.7 14.7 41 30.4
2004-07-29 09:36:33 51°16.597 2°30.888 43 14.7 41 30.7
2004-07-29 09:36:38 51°16.612 2°30.91 43.8 14.7 42 30.5
2004-07-29 09:36:42 51°16.624 2°30.927 44.3 14.7 42 30.5
2004-07-29 09:36:48 51°16.642 2°30.954 44.7 14.7 42 30.2
2004-07-29 09:36:53 51°16.657 2°30.975 44.8 14.7 41 29.5
2004-07-29 09:36:57 51°16.67 2°30.992 44.3 14.7 41 28
2004-07-29 09:37:01 51°16.682 2°31.009 43.7 14.7 41 26.8
2004-07-29 09:37:08 51°16.704 2°31.039 43.4 14.8 41 30.6
2004-07-29 09:37:13 51°16.719 2°31.061 43.5 14.8 41 30.8
2004-07-29 09:37:18 51°16.735 2°31.082 43.6 14.8 41 31
2004-07-29 09:37:21 51°16.744 2°31.095 43.6 14.7 41 30.7
2004-07-29 09:37:28 51°16.765 2°31.125 43.5 14.7 41 30.4
2004-07-29 09:37:33 51°16.78 2°31.146 43.5 14.7 41 30.6
2004-07-29 09:37:38 51°16.795 2°31.168 43.5 14.7 41 30.3
2004-07-29 09:37:41 51°16.804 2°31.181 43.6 14.7 41 30.4
2004-07-29 09:37:48 51°16.826 2°31.211 44 14.8 41 30.1
2004-07-29 09:37:53 51°16.841 2°31.233 44.2 14.8 42 30.2
2004-07-29 09:37:57 51°16.853 2°31.251 45 14.8 42 30.1
2004-07-29 09:38:01 51°16.865 2°31.268 45.1 14.8 42 30
2004-07-29 09:38:08 51°16.887 2°31.299 45 14.8 42 30
2004-07-29 09:38:12 51°16.899 2°31.316 44.3 14.7 41 30.2
2004-07-29 09:38:17 51°16.914 2°31.337 44.2 14.7 41 30.2
2004-07-29 09:38:21 51°16.927 2°31.354 43.8 14.8 41 30.2
2004-07-29 09:38:28 51°16.949 2°31.384 43.5 14.8 41 30
2004-07-29 09:38:33 51°16.964 2°31.405 43.4 14.7 41 29.8
2004-07-29 09:38:37 51°16.977 2°31.422 43.4 14.8 41 29.6
2004-07-29 09:38:42 51°16.992 2°31.443 43.4 14.8 41 29.6
2004-07-29 09:38:48 51°17.011 2°31.469 43.5 14.7 41 29
2004-07-29 09:38:52 51°17.023 2°31.487 44.1 14.7 42 27.9
2004-07-29 09:38:58 51°17.041 2°31.513 44.4 14.7 42 29.9
2004-07-29 09:39:02 51°17.053 2°31.53 44.8 14.8 42 30.1
2004-07-29 09:39:08 51°17.071 2°31.557 45.5 14.8 43 30
2004-07-29 09:39:13 51°17.086 2°31.579 45.7 14.7 43 29.7
2004-07-29 09:39:17 51°17.098 2°31.596 45.5 14.7 42 29.1
2004-07-29 09:39:22 51°17.114 2°31.618 44.9 14.7 42 28.6
2004-07-29 09:39:28 51°17.132 2°31.644 44.1 14.7 41 27.5
2004-07-29 09:39:33 51°17.148 2°31.665 43.9 14.7 41 28.8
2004-07-29 09:39:38 51°17.163 2°31.686 43.7 14.7 41 29.7
2004-07-29 09:39:42 51°17.175 2°31.703 43.6 14.7 41 29.9
2004-07-29 09:39:48 51°17.193 2°31.729 43.6 14.8 42 29.2
2004-07-29 09:39:53 51°17.208 2°31.752 45 14.8 44 29
2004-07-29 09:39:58 51°17.223 2°31.775 46.6 14.8 44 28
2004-07-29 09:40:00 51°17.228 2°31.784 47.9 14.7 45 28.1
2004-07-29 09:40:08 51°17.251 2°31.821 48.7 14.7 46 29.3
2004-07-29 09:40:13 51°17.265 2°31.845 49.3 14.7 47 28.9
2004-07-29 09:40:17 51°17.276 2°31.864 50 14.8 47 27.9
2004-07-29 09:40:22 51°17.29 2°31.888 50.5 14.8 47 27.9
2004-07-29 09:40:28 51°17.306 2°31.917 51.2 14.7 47 29.5
2004-07-29 09:40:33 51°17.32 2°31.94 50.8 14.7 45 29.1
2004-07-29 09:40:38 51°17.335 2°31.963 48.9 14.7 44 28.8
2004-07-29 09:40:41 51°17.344 2°31.976 47.3 14.7 44 28.4
2004-07-29 09:40:48 51°17.365 2°32.007 46.3 14.7 42 28.3
2004-07-29 09:40:53 51°17.38 2°32.029 45.6 14.7 42 28.2
2004-07-29 09:40:58 51°17.396 2°32.05 44.7 14.8 41 27.6
2004-07-29 09:41:01 51°17.405 2°32.063 44.2 14.8 41 29.2
2004-07-29 09:41:08 51°17.427 2°32.093 43.6 14.8 40 29.1
2004-07-29 09:41:13 51°17.443 2°32.114 43.2 14.8 40 28.5
2004-07-29 09:41:18 51°17.458 2°32.135 43.1 14.8 41 28.3
2004-07-29 09:41:22 51°17.471 2°32.153 43.5 14.8 41 27.9
2004-07-29 09:41:28 51°17.489 2°32.179 44.2 14.8 42 27.4
2004-07-29 09:41:33 51°17.504 2°32.2 44.3 14.8 42 27.1
2004-07-29 09:41:37 51°17.517 2°32.218 44.6 14.8 41 28.6
2004-07-29 09:41:41 51°17.529 2°32.235 44.3 14.8 41 28.1
2004-07-29 09:41:48 51°17.551 2°32.265 44.1 14.8 41 28.1
2004-07-29 09:41:53 51°17.566 2°32.286 43.7 14.8 40 28
2004-07-29 09:41:58 51°17.582 2°32.307 43.3 14.8 40 28.2
2004-07-29 09:42:01 51°17.591 2°32.32 43.4 14.8 41 28.2
2004-07-29 09:42:08 51°17.613 2°32.35 43.9 14.8 41 27.9
2004-07-29 09:42:13 51°17.628 2°32.372 44.1 14.8 41 27.6
2004-07-29 09:42:18 51°17.644 2°32.393 44.2 14.7 41 27.2
2004-07-29 09:42:21 51°17.653 2°32.406 43.9 14.7 41 27.4
2004-07-29 09:42:28 51°17.674 2°32.436 44.1 14.7 41 27.2
2004-07-29 09:42:33 51°17.69 2°32.457 44.2 14.7 41 27.2
2004-07-29 09:42:38 51°17.705 2°32.479 44.2 14.7 42 27.2
2004-07-29 09:42:41 51°17.714 2°32.492 44.8 14.7 42 26.6
2004-07-29 09:42:48 51°17.735 2°32.522 45 14.7 42 26.8
2004-07-29 09:42:53 51°17.75 2°32.544 45.1 14.7 42 27.1
2004-07-29 09:42:58 51°17.766 2°32.566 45.3 14.7 42 26.5
2004-07-29 09:43:02 51°17.778 2°32.583 45.3 14.7 42 26.7
2004-07-29 09:43:08 51°17.796 2°32.61 45.3 14.7 42 26.4
2004-07-29 09:43:13 51°17.811 2°32.631 45.1 14.7 42 26.1
2004-07-29 09:43:17 51°17.823 2°32.648 44.8 14.7 41 26
2004-07-29 09:43:21 51°17.836 2°32.665 44.3 14.7 41 25.3
2004-07-29 09:43:28 51°17.857 2°32.695 43.9 14.7 41 25.9
2004-07-29 09:43:33 51°17.873 2°32.717 43.8 14.7 41 26
2004-07-29 09:43:38 51°17.888 2°32.738 44.1 14.7 41 25.9
2004-07-29 09:43:41 51°17.898 2°32.751 43.7 14.7 41 25.6
2004-07-29 09:43:48 51°17.919 2°32.78 43.6 14.7 40 25.3
2004-07-29 09:43:53 51°17.935 2°32.801 43.6 14.7 40 25.6
2004-07-29 09:43:58 51°17.95 2°32.822 43.6 14.7 40 25.9
2004-07-29 09:44:01 51°17.96 2°32.835 43.6 14.7 40 25.8
2004-07-29 09:44:08 51°17.981 2°32.865 43.6 14.7 41 25.1
2004-07-29 09:44:13 51°17.997 2°32.886 44.1 14.7 41 25
2004-07-29 09:44:18 51°18.012 2°32.908 44.4 14.7 42 24.8
2004-07-29 09:44:21 51°18.021 2°32.921 44.7 14.7 41 24.5
2004-07-29 09:44:28 51°18.042 2°32.951 44.9 14.7 42 24.4
2004-07-29 09:44:33 51°18.057 2°32.973 44.7 14.7 42 24.2
2004-07-29 09:44:38 51°18.072 2°32.994 44.9 14.7 42 24
2004-07-29 09:44:42 51°18.085 2°33.012 45.2 14.7 42 23.8
2004-07-29 09:44:48 51°18.103 2°33.038 45.3 14.7 42 23.7
2004-07-29 09:44:53 51°18.118 2°33.059 45.2 14.7 42 23.5
2004-07-29 09:44:57 51°18.13 2°33.077 44.8 14.7 42 23.2
2004-07-29 09:45:01 51°18.143 2°33.094 44.4 14.7 41 23.2
2004-07-29 09:45:08 51°18.164 2°33.123 44.1 14.7 41 23
2004-07-29 09:45:13 51°18.18 2°33.144 43.8 14.7 41 22.7
2004-07-29 09:45:18 51°18.195 2°33.165 43.7 14.7 40 22.5
2004-07-29 09:45:21 51°18.205 2°33.178 43.3 14.7 40 22.3
2004-07-29 09:45:28 51°18.226 2°33.208 43.6 14.7 41 22.1
2004-07-29 09:45:33 51°18.242 2°33.229 44 14.7 41 22
2004-07-29 09:45:38 51°18.257 2°33.251 44.2 14.7 42 21.9
2004-07-29 09:45:41 51°18.266 2°33.264 44.7 14.6 42 21.8
2004-07-29 09:45:48 51°18.287 2°33.294 45 14.6 42 21.6
2004-07-29 09:45:53 51°18.302 2°33.316 45.1 14.6 42 21.4
2004-07-29 09:45:58 51°18.317 2°33.337 45.1 14.6 42 21.2
2004-07-29 09:46:01 51°18.326 2°33.35 44.7 14.6 42 21
2004-07-29 09:46:08 51°18.347 2°33.38 44.5 14.6 41 21.1
2004-07-29 09:46:13 51°18.362 2°33.402 44.3 14.5 41 20.9
2004-07-29 09:46:18 51°18.377 2°33.423 44 14.5 41 20.6
2004-07-29 09:46:22 51°18.389 2°33.439 43.7 14.5 41 20.4
2004-07-29 09:46:28 51°18.408 2°33.464 43.8 14.5 41 20.1
2004-07-29 09:46:33 51°18.423 2°33.485 43.3 14.5 41 19.8
2004-07-29 09:46:37 51°18.435 2°33.502 43.5 14.6 41 19.7
2004-07-29 09:46:41 51°18.447 2°33.519 43.9 14.6 41 19.3
2004-07-29 09:46:48 51°18.469 2°33.549 44.1 14.6 41 18.9
2004-07-29 09:46:53 51°18.484 2°33.57 44 14.6 41 18.3
2004-07-29 09:46:58 51°18.5 2°33.591 43.5 14.6 41 18
2004-07-29 09:47:01 51°18.509 2°33.604 43.5 14.6 41 17.9
2004-07-29 09:47:08 51°18.53 2°33.633 43.9 14.7 41 17.5
2004-07-29 09:47:13 51°18.546 2°33.655 43.9 14.7 41 17.4
2004-07-29 09:47:18 51°18.561 2°33.677 44.3 14.7 41 17.2
2004-07-29 09:47:21 51°18.57 2°33.69 44.3 14.8 41 19.3
2004-07-29 09:47:28 51°18.592 2°33.719 44 14.8 41 19.3
2004-07-29 09:47:33 51°18.608 2°33.741 43.7 14.8 41 19.5
2004-07-29 09:47:38 51°18.623 2°33.762 43.7 14.8 41 19.1
2004-07-29 09:47:41 51°18.633 2°33.775 43.9 14.8 41 17.5
2004-07-29 09:47:48 51°18.654 2°33.805 44.2 14.8 42 19.6
2004-07-29 09:47:53 51°18.669 2°33.828 45 14.8 43 19.3
2004-07-29 09:47:58 51°18.684 2°33.85 45.6 14.8 43 18.4
2004-07-29 09:48:02 51°18.696 2°33.867 45.7 14.7 43 18.6
2004-07-29 09:48:08 51°18.714 2°33.894 46 14.8 43 19.6
2004-07-29 09:48:13 51°18.729 2°33.916 45.9 14.8 43 19.1
2004-07-29 09:48:17 51°18.741 2°33.934 45.7 14.7 42 18.5
2004-07-29 09:48:21 51°18.754 2°33.951 45 14.8 42 18.2
2004-07-29 09:48:28 51°18.776 2°33.981 44.6 14.8 41 19.3
2004-07-29 09:48:33 51°18.791 2°34.003 44.6 14.8 42 19.1
2004-07-29 09:48:38 51°18.806 2°34.025 44.6 14.8 42 17.7
2004-07-29 09:48:41 51°18.815 2°34.038 45.2 14.8 43 18.1
2004-07-29 09:48:48 51°18.836 2°34.069 45.7 14.8 42 17.6
2004-07-29 09:48:53 51°18.851 2°34.091 45.7 14.8 42 19.4
2004-07-29 09:48:58 51°18.867 2°34.114 45.4 14.8 42 19.5
2004-07-29 09:49:01 51°18.876 2°34.127 45.4 14.8 42 18.9
2004-07-29 09:49:08 51°18.897 2°34.158 45.1 14.8 42 17.9
2004-07-29 09:49:13 51°18.912 2°34.18 45 14.8 42 19
2004-07-29 09:49:18 51°18.928 2°34.202 45 14.8 42 17.6
2004-07-29 09:49:21 51°18.937 2°34.215 45.1 14.8 42 19
2004-07-29 09:49:28 51°18.958 2°34.246 45.7 14.8 43 18.9
2004-07-29 09:49:33 51°18.972 2°34.269 46.5 14.8 44 17.8
2004-07-29 09:49:38 51°18.987 2°34.292 47.1 14.8 44 19.6
2004-07-29 09:49:42 51°18.999 2°34.31 47.3 14.8 44 19.2
2004-07-29 09:49:48 51°19.016 2°34.337 47.6 14.8 44 17.4
2004-07-29 09:49:53 51°19.031 2°34.36 47.6 14.8 44 19.2
2004-07-29 09:49:57 51°19.043 2°34.378 47.6 14.8 44 19.6
2004-07-29 09:50:01 51°19.054 2°34.397 47.6 14.8 45 18.7
2004-07-29 09:50:08 51°19.075 2°34.428 47.6 14.8 44 17.6
2004-07-29 09:50:13 51°19.09 2°34.451 47.4 14.8 44 19.4
2004-07-29 09:50:16 51°19.099 2°34.465 47.1 14.8 44 18.6
2004-07-29 09:50:21 51°19.114 2°34.488 47.1 14.8 44 17.9
2004-07-29 09:50:28 51°19.134 2°34.519 47.1 14.8 44 19.2
2004-07-29 09:50:33 51°19.149 2°34.542 47.5 14.8 44 19.1
2004-07-29 09:50:38 51°19.164 2°34.565 47.3 14.8 44 16.8
2004-07-29 09:50:41 51°19.173 2°34.579 47.3 14.7 44 19.1
2004-07-29 09:50:48 51°19.194 2°34.61 47.2 14.8 44 18.7
2004-07-29 09:50:53 51°19.208 2°34.633 47 14.8 44 19
2004-07-29 09:50:58 51°19.223 2°34.656 47 14.7 44 17.9
2004-07-29 09:51:01 51°19.232 2°34.669 47.1 14.7 44 19.2
2004-07-29 09:51:08 51°19.253 2°34.701 47.1 14.8 44 18.2
2004-07-29 09:51:13 51°19.267 2°34.724 46.9 14.8 44 18.9
2004-07-29 09:51:18 51°19.282 2°34.747 47.2 14.8 44 19.6
2004-07-29 09:51:22 51°19.294 2°34.765 47.4 14.8 44 18.1
2004-07-29 09:51:28 51°19.311 2°34.792 47.4 14.8 44 18.9
2004-07-29 09:51:33 51°19.326 2°34.815 47.2 14.8 44 19.6
2004-07-29 09:51:37 51°19.338 2°34.834 47.4 14.8 45 17.8
2004-07-29 09:51:41 51°19.349 2°34.852 48 14.9 45 19.5
2004-07-29 09:51:48 51°19.37 2°34.885 48.1 14.8 45 18.4
2004-07-29 09:51:53 51°19.384 2°34.908 48.3 14.8 45 19.3
2004-07-29 09:51:58 51°19.399 2°34.931 48.6 14.8 45 19
2004-07-29 09:52:01 51°19.407 2°34.945 48.3 14.8 45 19.3
2004-07-29 09:52:08 51°19.427 2°34.978 48.2 14.7 46 20.2
2004-07-29 09:52:13 51°19.441 2°35.003 49.9 14.8 49 19.5
2004-07-29 09:52:18 51°19.454 2°35.028 52.2 14.8 49 19.1
2004-07-29 09:52:21 51°19.462 2°35.043 53.1 14.8 50 20.3
2004-07-29 09:52:28 51°19.48 2°35.078 54.6 14.8 51 20
2004-07-29 09:52:33 51°19.492 2°35.104 55.3 14.8 52 18.9
2004-07-29 09:52:38 51°19.504 2°35.131 56.4 14.8 54 20.1
2004-07-29 09:52:41 51°19.511 2°35.147 58.2 14.8 55 20.6
2004-07-29 09:52:48 51°19.527 2°35.185 59.2 14.8 56 20.4
2004-07-29 09:52:53 51°19.539 2°35.212 60 14.8 56 19.8
2004-07-29 09:52:57 51°19.548 2°35.234 60.5 14.8 57 21
2004-07-29 09:53:02 51°19.56 2°35.262 60.7 14.9 56 20.5
2004-07-29 09:53:08 51°19.573 2°35.295 60.9 14.9 57 20
2004-07-29 09:53:13 51°19.584 2°35.323 61.9 14.9 58 20.8
2004-07-29 09:53:18 51°19.594 2°35.351 62.7 14.8 59 21.1
2004-07-29 09:53:22 51°19.602 2°35.374 63.8 14.9 60 21.3
2004-07-29 09:53:28 51°19.614 2°35.408 64.4 14.9 60 19.8
2004-07-29 09:53:33 51°19.625 2°35.437 65 14.8 61 21.3
2004-07-29 09:53:38 51°19.635 2°35.465 65.3 14.8 61 21.9
2004-07-29 09:53:42 51°19.643 2°35.488 65.3 14.8 61 21.3
2004-07-29 09:53:48 51°19.655 2°35.523 65.4 14.8 61 20.7
2004-07-29 09:53:53 51°19.665 2°35.552 65.3 14.9 61 21.9
2004-07-29 09:53:57 51°19.672 2°35.575 66 14.9 62 22.1
2004-07-29 09:54:02 51°19.682 2°35.604 67.2 14.8 63 21.1
2004-07-29 09:54:08 51°19.693 2°35.639 67.5 14.8 62 21.5
2004-07-29 09:54:13 51°19.703 2°35.669 67.7 14.9 63 22.4
2004-07-29 09:54:18 51°19.712 2°35.698 68.2 14.9 64 22.5
2004-07-29 09:54:21 51°19.717 2°35.716 68.6 14.8 64 22.6
2004-07-29 09:54:28 51°19.73 2°35.757 68.7 14.8 64 21.3
2004-07-29 09:54:33 51°19.739 2°35.787 69 14.8 64 22.5
2004-07-29 09:54:38 51°19.748 2°35.816 69.3 14.8 64 22.7
2004-07-29 09:54:41 51°19.753 2°35.834 69.3 14.8 64 23
2004-07-29 09:54:48 51°19.766 2°35.875 69.2 14.8 64 21.4
2004-07-29 09:54:53 51°19.775 2°35.904 69.3 14.8 64 22.8
2004-07-29 09:54:57 51°19.782 2°35.928 69.3 14.8 64 23.3
2004-07-29 09:55:02 51°19.79 2°35.958 69.3 14.8 64 23.1
2004-07-29 09:55:08 51°19.8 2°35.993 69 14.8 64 22.7
2004-07-29 09:55:13 51°19.81 2°36.022 68.6 14.8 63 22.5
2004-07-29 09:55:17 51°19.817 2°36.045 68.2 14.8 63 22.9
2004-07-29 09:55:22 51°19.827 2°36.074 67.6 14.8 63 23.3
2004-07-29 09:55:28 51°19.838 2°36.109 67.4 14.8 63 23.5
2004-07-29 09:55:32 51°19.846 2°36.132 67.4 14.8 62 22.2
2004-07-29 09:55:38 51°19.858 2°36.167 67.4 14.8 62 22.9
2004-07-29 09:55:42 51°19.866 2°36.19 67.7 14.8 63 23.4
2004-07-29 09:55:48 51°19.877 2°36.225 67.7 14.8 63 23.9
2004-07-29 09:55:53 51°19.886 2°36.254 67.7 14.7 63 23.7
2004-07-29 09:55:57 51°19.894 2°36.277 67.5 14.7 62 22.9
2004-07-29 09:56:02 51°19.904 2°36.306 67.2 14.7 62 24
2004-07-29 09:56:08 51°19.915 2°36.341 66.8 14.8 62 24
2004-07-29 09:56:13 51°19.925 2°36.37 67 14.8 62 22.2
2004-07-29 09:56:18 51°19.934 2°36.399 67.4 14.8 63 23.6
2004-07-29 09:56:22 51°19.941 2°36.423 67.9 14.8 63 23.8
2004-07-29 09:56:28 51°19.951 2°36.458 68.4 14.8 64 23.3
2004-07-29 09:56:33 51°19.96 2°36.487 68.7 14.8 64 23.7
2004-07-29 09:56:38 51°19.969 2°36.517 69.3 14.8 65 23.9
2004-07-29 09:56:42 51°19.976 2°36.541 70.2 14.8 65 22.7
2004-07-29 09:56:48 51°19.986 2°36.576 70.5 14.8 65 23.3
2004-07-29 09:56:53 51°19.995 2°36.606 70.4 14.7 65 23.9
2004-07-29 09:56:58 51°20.004 2°36.635 70.1 14.8 65 24.2
2004-07-29 09:57:01 51°20.009 2°36.653 69.5 14.8 64 23.8
2004-07-29 09:57:08 51°20.022 2°36.694 69.2 14.8 64 23.9
2004-07-29 09:57:13 51°20.031 2°36.723 69.2 14.8 64 24
2004-07-29 09:57:18 51°20.04 2°36.753 69.1 14.8 64 23.1
2004-07-29 09:57:21 51°20.045 2°36.771 69.4 14.9 64 23.7
2004-07-29 09:57:28 51°20.058 2°36.812 69.5 14.8 65 23.5
2004-07-29 09:57:33 51°20.067 2°36.841 69.6 14.8 64 24.2
2004-07-29 09:57:38 51°20.075 2°36.871 69.6 14.8 65 24.7
2004-07-29 09:57:42 51°20.082 2°36.894 69.8 14.7 65 25.4
2004-07-29 09:57:48 51°20.093 2°36.93 69.9 14.8 65 25.9
2004-07-29 09:57:53 51°20.101 2°36.96 70.2 14.8 65 26.5
2004-07-29 09:57:58 51°20.11 2°36.989 70.4 14.8 65 23.6
2004-07-29 09:58:02 51°20.117 2°37.013 70.3 14.8 65 22.6
2004-07-29 09:58:08 51°20.127 2°37.049 69.8 14.8 65 24.1
2004-07-29 09:58:13 51°20.136 2°37.078 69.6 14.8 64 23.9
2004-07-29 09:58:15 51°20.14 2°37.09 69.4 14.8 64 22.5
2004-07-29 09:58:25 51°20.158 2°37.149 69 14.8 64 24.7
2004-07-29 09:58:32 51°20.171 2°37.19 68.9 14.8 64 24.4
2004-07-29 09:58:36 51°20.178 2°37.214 68.8 14.8 64 24.2
2004-07-29 09:58:42 51°20.189 2°37.249 68.9 14.8 64 24.1
2004-07-29 09:58:47 51°20.197 2°37.278 69.3 14.8 64 24.2
2004-07-29 09:58:52 51°20.206 2°37.308 69.6 14.8 65 24.8
2004-07-29 09:58:57 51°20.215 2°37.338 69.8 14.8 65 24.3
2004-07-29 09:59:02 51°20.224 2°37.368 70.1 14.8 65 25.1
2004-07-29 09:59:07 51°20.232 2°37.397 70.1 14.8 65 23.3
2004-07-29 09:59:12 51°20.241 2°37.427 69.8 14.8 65 24.9
2004-07-29 09:59:17 51°20.25 2°37.456 69.7 14.8 64 25.2
2004-07-29 09:59:20 51°20.256 2°37.474 69.5 14.8 64 25.1
2004-07-29 09:59:24 51°20.263 2°37.497 69 14.8 64 23
2004-07-29 09:59:32 51°20.278 2°37.544 68.7 14.8 63 25.4
2004-07-29 09:59:37 51°20.287 2°37.574 68.4 14.8 64 25
2004-07-29 09:59:42 51°20.296 2°37.603 68.8 14.8 64 24.8
2004-07-29 09:59:47 51°20.305 2°37.633 69.1 14.8 64 25.4
2004-07-29 09:59:52 51°20.314 2°37.662 68.9 14.7 64 24.4
2004-07-29 09:59:56 51°20.322 2°37.686 68.8 14.8 64 25.1
2004-07-29 10:00:02 51°20.333 2°37.721 68.7 14.8 63 24.1
2004-07-29 10:00:07 51°20.342 2°37.75 68.6 14.8 64 23.3
2004-07-29 10:00:12 51°20.351 2°37.78 68.6 14.8 63 25.1
2004-07-29 10:00:17 51°20.36 2°37.809 68.9 14.8 64 25.6
2004-07-29 10:00:21 51°20.367 2°37.833 69.2 14.9 64 24.2
2004-07-29 10:00:26 51°20.377 2°37.863 69.4 14.9 64 25.3
2004-07-29 10:00:32 51°20.387 2°37.899 69.5 14.9 64 25.5
2004-07-29 10:00:37 51°20.397 2°37.928 69.4 14.9 64 23.6
2004-07-29 10:00:42 51°20.406 2°37.958 69 14.8 64 25.2
2004-07-29 10:00:47 51°20.414 2°37.987 69.1 14.8 64 25.6
2004-07-29 10:00:52 51°20.423 2°38.017 70.4 14.8 66 25.8
2004-07-29 10:00:57 51°20.431 2°38.048 71.5 14.9 67 25.4
2004-07-29 10:01:02 51°20.439 2°38.078 72 14.8 67 24.2
2004-07-29 10:01:07 51°20.447 2°38.108 72.3 14.8 67 25.8
2004-07-29 10:01:12 51°20.455 2°38.138 72.4 14.8 67 26.2
2004-07-29 10:01:17 51°20.463 2°38.168 72.9 14.8 67 25
2004-07-29 10:01:22 51°20.471 2°38.198 72.9 14.8 67 26.2
2004-07-29 10:01:26 51°20.477 2°38.222 72.9 14.8 67 25.7
2004-07-29 10:01:32 51°20.486 2°38.259 72.8 14.8 68 25.9
2004-07-29 10:01:37 51°20.494 2°38.289 73.1 14.8 68 26.4
2004-07-29 10:01:42 51°20.502 2°38.319 73.2 14.8 68 26.1
2004-07-29 10:01:45 51°20.506 2°38.337 73.3 14.7 67 24.9
2004-07-29 10:01:52 51°20.517 2°38.379 73.2 14.8 67 26.4
2004-07-29 10:01:57 51°20.525 2°38.409 72.7 14.8 67 26.4
2004-07-29 10:02:02 51°20.534 2°38.439 72.5 14.9 67 24.7
2004-07-29 10:02:07 51°20.542 2°38.469 72.2 14.8 66 26.5
2004-07-29 10:02:11 51°20.548 2°38.493 71.9 14.8 66 26.7
2004-07-29 10:02:17 51°20.558 2°38.529 71.6 14.8 66 25.6
2004-07-29 10:02:21 51°20.565 2°38.553 71.5 14.8 66 26
2004-07-29 10:02:26 51°20.573 2°38.583 72.1 14.8 67 26.3
2004-07-29 10:02:32 51°20.582 2°38.62 72.8 14.8 68 26.3
2004-07-29 10:02:36 51°20.588 2°38.644 73.3 14.8 68 26.6
2004-07-29 10:02:42 51°20.598 2°38.68 73.3 14.7 68 26.7
2004-07-29 10:02:45 51°20.603 2°38.698 73 14.7 67 25.3
2004-07-29 10:02:52 51°20.614 2°38.74 72.7 14.8 67 26.5
2004-07-29 10:02:54 51°20.617 2°38.752 72.8 14.7 68 26.8
2004-07-29 10:03:05 51°20.634 2°38.818 73 14.7 67 26.4
2004-07-29 10:03:12 51°20.645 2°38.86 72.9 14.8 67 25.5
2004-07-29 10:03:17 51°20.653 2°38.89 72.4 14.8 66 26.4
2004-07-29 10:03:22 51°20.661 2°38.92 72.1 14.7 66 27
2004-07-29 10:03:26 51°20.668 2°38.943 72.1 14.7 66 27.3
2004-07-29 10:03:32 51°20.678 2°38.979 72.1 14.7 67 27.5
2004-07-29 10:03:37 51°20.686 2°39.009 72.2 14.7 67 27.6
2004-07-29 10:03:42 51°20.694 2°39.039 72.5 14.7 67 27.6
2004-07-29 10:03:47 51°20.702 2°39.069 72.4 14.7 67 27.3
2004-07-29 10:03:52 51°20.71 2°39.099 72.3 14.7 67 26.9
2004-07-29 10:03:57 51°20.718 2°39.129 72.3 14.7 66 26.9
2004-07-29 10:04:01 51°20.724 2°39.153 72.2 14.7 67 27
2004-07-29 10:04:06 51°20.732 2°39.182 72.3 14.7 67 27.1
2004-07-29 10:04:12 51°20.742 2°39.218 72.5 14.6 67 27.1
2004-07-29 10:04:16 51°20.748 2°39.242 72.5 14.7 66 27.4
2004-07-29 10:04:22 51°20.758 2°39.278 72.4 14.7 67 27.4
2004-07-29 10:04:27 51°20.766 2°39.307 72.3 14.7 66 27.5
2004-07-29 10:04:32 51°20.774 2°39.337 72.1 14.7 66 27.6
2004-07-29 10:04:37 51°20.783 2°39.367 71.8 14.7 66 27.5
2004-07-29 10:04:40 51°20.788 2°39.384 71.8 14.6 66 27.2
2004-07-29 10:04:46 51°20.798 2°39.42 72.1 14.7 66 27
2004-07-29 10:04:52 51°20.807 2°39.456 72.2 14.7 66 26.8
2004-07-29 10:04:57 51°20.815 2°39.485 72.6 14.6 66 26.8
2004-07-29 10:05:01 51°20.822 2°39.509 72.7 14.6 67 26.8
2004-07-29 10:05:06 51°20.83 2°39.539 72.6 14.6 66 26.6
2004-07-29 10:05:12 51°20.84 2°39.574 72.2 14.6 66 27.3
2004-07-29 10:05:17 51°20.848 2°39.604 72.2 14.7 66 27.7
2004-07-29 10:05:22 51°20.856 2°39.633 72.5 14.6 67 27.9
2004-07-29 10:05:26 51°20.862 2°39.657 72.9 14.5 66 27.8
2004-07-29 10:05:32 51°20.871 2°39.693 73.1 14.5 67 27.8
2004-07-29 10:05:37 51°20.879 2°39.722 73.2 14.6 67 28.2
2004-07-29 10:05:42 51°20.887 2°39.752 73.3 14.5 67 28.5
2004-07-29 10:05:46 51°20.894 2°39.776 73.2 14.5 67 28.6
2004-07-29 10:05:52 51°20.904 2°39.811 73.1 14.5 67 28.5
2004-07-29 10:05:57 51°20.912 2°39.84 72.8 14.5 66 28.5
2004-07-29 10:06:01 51°20.919 2°39.864 71.8 14.5 64 28.4
2004-07-29 10:06:05 51°20.926 2°39.886 70 14.5 63 28
2004-07-29 10:06:12 51°20.94 2°39.925 67.9 14.5 61 26.2
2004-07-29 10:06:17 51°20.951 2°39.953 66 14.5 58 27.4
2004-07-29 10:06:22 51°20.962 2°39.979 64.3 14.5 56 28.1
2004-07-29 10:06:27 51°20.974 2°40.006 62.7 14.6 55 28.6
2004-07-29 10:06:32 51°20.986 2°40.032 61.9 14.6 55 28.6
2004-07-29 10:06:36 51°20.996 2°40.053 61.4 14.7 53 29
2004-07-29 10:06:42 51°21.011 2°40.084 61 14.7 54 29
2004-07-29 10:06:44 51°21.016 2°40.094 61.2 14.7 54 28.6
2004-07-29 10:06:52 51°21.035 2°40.137 61.5 14.9 54 28.1
2004-07-29 10:06:57 51°21.047 2°40.164 61.6 14.8 55 25.8
2004-07-29 10:07:02 51°21.059 2°40.191 62.4 14.8 55 27.5
2004-07-29 10:07:07 51°21.07 2°40.218 62.7 14.8 55 28.6
2004-07-29 10:07:12 51°21.082 2°40.245 62.9 14.9 55 29.1
2004-07-29 10:07:17 51°21.094 2°40.271 63.1 14.8 55 29.2
2004-07-29 10:07:22 51°21.107 2°40.297 62 14.8 52 29.3
2004-07-29 10:07:26 51°21.118 2°40.316 57.8 14.8 47 29.1
2004-07-29 10:07:32 51°21.135 2°40.344 54.1 14.8 45 28.6
2004-07-29 10:07:37 51°21.15 2°40.366 50.4 14.9 41 27.6
2004-07-29 10:07:41 51°21.163 2°40.383 47.5 14.8 40 28.4
2004-07-29 10:07:46 51°21.179 2°40.403 45.7 14.8 38 28.8
2004-07-29 10:07:52 51°21.199 2°40.426 44.7 14.8 36 28.4
2004-07-29 10:07:55 51°21.21 2°40.435 39.5 14.7 29 27.2
2004-07-29 10:08:02 51°21.235 2°40.457 35.9 14.7 28 28.9
2004-07-29 10:08:07 51°21.254 2°40.468 30.8 14.7 21 29.7
2004-07-29 10:08:12 51°21.273 2°40.479 25.6 14.7 20 29.6
2004-07-29 10:08:17 51°21.293 2°40.487 22.6 14.6 16 29.1
2004-07-29 10:08:22 51°21.312 2°40.494 18.7 14.5 12 28.3
2004-07-29 10:08:27 51°21.332 2°40.497 13.5 14.5 8 29.4
2004-07-29 10:08:32 51°21.352 2°40.499 9.5 14.4 4 30.1
2004-07-29 10:08:37 51°21.372 2°40.5 5.5 14.4 1 29.5
2004-07-29 10:08:41 51°21.389 2°40.5 2.9 14.5   27.6
2004-07-29 10:08:46 51°21.409 2°40.499 1.3 14.5 359 28.7
2004-07-29 10:08:52 51°21.433 2°40.498 0.2 14.5 358 29.6
2004-07-29 10:08:57 51°21.453 2°40.496 359.2 14.5 357 30
2004-07-29 10:09:01 51°21.469 2°40.494 358.5 14.5 356 30
2004-07-29 10:09:06 51°21.489 2°40.492 358.2 14.6 356 29.5
2004-07-29 10:09:12 51°21.514 2°40.49 358.1 14.6 356 29.3
2004-07-29 10:09:17 51°21.534 2°40.488 358 14.6 357 29.9
2004-07-29 10:09:21 51°21.55 2°40.487 359 14.6 358 30.6
2004-07-29 10:09:26 51°21.57 2°40.487 0.4 14.6 359 30.9
2004-07-29 10:09:32 51°21.595 2°40.487 1.1 14.6   31.4
2004-07-29 10:09:37 51°21.615 2°40.487 2.1 14.6 1 31.3
2004-07-29 10:09:42 51°21.635 2°40.487 2.7 14.6 1 31.5
2004-07-29 10:09:46 51°21.651 2°40.488 3.1 14.6 1 31.4
2004-07-29 10:09:52 51°21.676 2°40.488 3.3 14.6 1 31.1
2004-07-29 10:09:56 51°21.692 2°40.489 3.5 14.6 2 29.4
2004-07-29 10:10:02 51°21.716 2°40.49 3.8 14.6 1 29.5
2004-07-29 10:10:05 51°21.728 2°40.49 3.7 14.5 1 30.1
2004-07-29 10:10:12 51°21.756 2°40.491 3.4 14.5   29.9
2004-07-29 10:10:17 51°21.777 2°40.491 2.7 14.5   30
2004-07-29 10:10:22 51°21.797 2°40.49 2.1 14.5 359 29.6
2004-07-29 10:10:24 51°21.805 2°40.49 1.3 14.5 359 29.4
2004-07-29 10:10:32 51°21.837 2°40.489 1 14.5 359 29.7
2004-07-29 10:10:37 51°21.857 2°40.488 0.9 14.5 358 30.3
2004-07-29 10:10:42 51°21.877 2°40.487 0.5 14.5 358 30.1
2004-07-29 10:10:47 51°21.897 2°40.486 0.3 14.5 358 28.2
2004-07-29 10:10:52 51°21.918 2°40.485 0.2 14.5 358 28
2004-07-29 10:10:57 51°21.938 2°40.484   14.5 358 29.2
2004-07-29 10:11:02 51°21.958 2°40.483 359.7 14.5 358 29.4
2004-07-29 10:11:04 51°21.966 2°40.482 359.9 14.5 358 30.2
2004-07-29 10:11:12 51°21.998 2°40.481   14.5 358 30.4
2004-07-29 10:11:17 51°22.018 2°40.48 0.2 14.6 358 30.2
2004-07-29 10:11:22 51°22.039 2°40.479 0.3 14.6 359 30.1
2004-07-29 10:11:25 51°22.051 2°40.479 0.5 14.5 359 30.3
2004-07-29 10:11:32 51°22.079 2°40.478 0.8 14.5 359 30.7
2004-07-29 10:11:37 51°22.099 2°40.477 0.8 14.6 359 30.9
2004-07-29 10:11:42 51°22.119 2°40.476 0.9 14.6 359 30.8
2004-07-29 10:11:46 51°22.135 2°40.476 0.9 14.5 359 31
2004-07-29 10:11:52 51°22.16 2°40.475 0.9 14.6 359 30.1
2004-07-29 10:11:57 51°22.18 2°40.475 1 14.6 359 30.7
2004-07-29 10:12:02 51°22.2 2°40.474 1 14.6 359 31
2004-07-29 10:12:05 51°22.212 2°40.474 1.1 14.6 359 31.1
2004-07-29 10:12:12 51°22.24 2°40.474 1.4 14.5   31
2004-07-29 10:12:17 51°22.26 2°40.474 1.6 14.6   31.2
2004-07-29 10:12:22 51°22.281 2°40.473 1.8 14.6   31.1
2004-07-29 10:12:27 51°22.301 2°40.473 1.7 14.6   31
2004-07-29 10:12:32 51°22.321 2°40.473 1.9 14.6   30.9
2004-07-29 10:12:37 51°22.341 2°40.473 1.9 14.6   31.2
2004-07-29 10:12:42 51°22.361 2°40.473 1.7 14.6   31.6
2004-07-29 10:12:46 51°22.377 2°40.473 1.6 14.5 359 31.8
2004-07-29 10:12:52 51°22.402 2°40.472 1.3 14.6 359 31.5
2004-07-29 10:12:57 51°22.422 2°40.472 1 14.6 359 31.9
2004-07-29 10:13:02 51°22.442 2°40.471 0.8 14.5 359 32.1
2004-07-29 10:13:07 51°22.462 2°40.47 0.5 14.6 359 31.6
2004-07-29 10:13:12 51°22.482 2°40.469 0.2 14.6 358 31.7
2004-07-29 10:13:17 51°22.503 2°40.468 0.2 14.6 359 31.8
2004-07-29 10:13:22 51°22.523 2°40.467 0.5 14.6 359 31.7
2004-07-29 10:13:25 51°22.535 2°40.467 0.7 14.6 359 31.9
2004-07-29 10:13:32 51°22.563 2°40.467 1 14.6 359 32
2004-07-29 10:13:37 51°22.584 2°40.467 1.4 14.5   31.8
2004-07-29 10:13:42 51°22.604 2°40.467 1.6 14.5   31.4
2004-07-29 10:13:46 51°22.62 2°40.467 1.8 14.6   31.4
2004-07-29 10:13:52 51°22.644 2°40.467 2.1 14.6 1 31.8
2004-07-29 10:13:57 51°22.665 2°40.467 2.1 14.6   31.6
2004-07-29 10:14:01 51°22.681 2°40.468 2.2 14.6   31.6
2004-07-29 10:14:07 51°22.705 2°40.468 2.1 14.6   31.3
2004-07-29 10:14:12 51°22.726 2°40.467 2 14.6   31.3
2004-07-29 10:14:17 51°22.746 2°40.467 1.6 14.6   31.4
2004-07-29 10:14:22 51°22.766 2°40.467 1.1 14.6 359 31.4
2004-07-29 10:14:26 51°22.782 2°40.466 0.7 14.6 359 31.8
2004-07-29 10:14:32 51°22.806 2°40.466 0.4 14.5 359 31.5
2004-07-29 10:14:37 51°22.826 2°40.465 0.3 14.6 359 31.5
2004-07-29 10:14:42 51°22.847 2°40.465 0.4 14.5 359 31.2
2004-07-29 10:14:45 51°22.859 2°40.464 0.3 14.5 359 31.3
2004-07-29 10:14:52 51°22.887 2°40.464 0.5 14.6 359 31.2
2004-07-29 10:14:57 51°22.907 2°40.463 0.7 14.5 359 31.3
2004-07-29 10:15:02 51°22.927 2°40.463 0.7 14.5 359 31.2
2004-07-29 10:15:04 51°22.935 2°40.463 0.7 14.5   31.4
2004-07-29 10:15:12 51°22.968 2°40.463 1.1 14.5   31.6
2004-07-29 10:15:17 51°22.988 2°40.463 1.2 14.6   31.6
2004-07-29 10:15:22 51°23.008 2°40.463 1.4 14.6   31.7
2004-07-29 10:15:27 51°23.028 2°40.463 1.5 14.6 1 31.7
2004-07-29 10:15:32 51°23.049 2°40.463 1.7 14.6   31.8
2004-07-29 10:15:37 51°23.069 2°40.463 1.7 14.6   31.9
2004-07-29 10:15:41 51°23.085 2°40.463 1.7 14.6   32
2004-07-29 10:15:46 51°23.106 2°40.463 1.5 14.6   32
2004-07-29 10:15:52 51°23.13 2°40.463 1.6 14.6   31.5
2004-07-29 10:15:56 51°23.146 2°40.463 1.7 14.6   31.8
2004-07-29 10:16:02 51°23.17 2°40.464 1.7 14.6   31.5
2004-07-29 10:16:05 51°23.182 2°40.464 1.7 14.6   31.6
2004-07-29 10:16:12 51°23.211 2°40.464 1.7 14.6   31.7
2004-07-29 10:16:17 51°23.231 2°40.464 1.4 14.6   32
2004-07-29 10:16:22 51°23.251 2°40.463 1.4 14.6   32
2004-07-29 10:16:27 51°23.271 2°40.463 0.8 14.6 359 32.1
2004-07-29 10:16:32 51°23.292 2°40.463 0.5 14.6   31.9
2004-07-29 10:16:35 51°23.304 2°40.462 0.2 14.6 359 31.9
2004-07-29 10:16:41 51°23.328 2°40.462 0.5 14.6   31.4
2004-07-29 10:16:47 51°23.353 2°40.463 0.9 14.6 1 31.3
2004-07-29 10:16:52 51°23.373 2°40.465 2 14.6 3 31.3
2004-07-29 10:16:57 51°23.393 2°40.471 6.4 14.6 9 31.6
2004-07-29 10:17:02 51°23.412 2°40.478 10.9 14.7 12 31.2
2004-07-29 10:17:07 51°23.432 2°40.487 15 14.8 15 31.1
2004-07-29 10:17:12 51°23.451 2°40.496 17.5 14.8 17 31.2
2004-07-29 10:17:17 51°23.471 2°40.507 19.5 14.8 19 31.5
2004-07-29 10:17:22 51°23.49 2°40.518 21.5 14.9 19 31.8
2004-07-29 10:17:27 51°23.51 2°40.53 22.4 14.9 21 31.9
2004-07-29 10:17:32 51°23.529 2°40.542 23.3 14.9 22 31.2
2004-07-29 10:17:37 51°23.547 2°40.557 25.5 14.9 26 31.8
2004-07-29 10:17:41 51°23.562 2°40.569 29.8 14.9 29 30.3
2004-07-29 10:17:45 51°23.576 2°40.583 34.1 15 32 32.1
2004-07-29 10:17:52 51°23.601 2°40.609 36.4 15 34 31.8
2004-07-29 10:17:57 51°23.617 2°40.629 38.6 15 36 31.1
2004-07-29 10:18:02 51°23.634 2°40.649 40.6 15 37 31
2004-07-29 10:18:07 51°23.651 2°40.668 41.4 15.2 36 31.4
2004-07-29 10:18:12 51°23.668 2°40.688 41.2 15.1 36 31.3
2004-07-29 10:18:17 51°23.685 2°40.708 41 15.1 36 31.1
2004-07-29 10:18:22 51°23.702 2°40.727 40.6 15.1 36 30.8
2004-07-29 10:18:26 51°23.716 2°40.743 39.9 15.1 35 31
2004-07-29 10:18:32 51°23.737 2°40.765 38.7 15.1 33 30.8
2004-07-29 10:18:37 51°23.755 2°40.783 37.6 15.2 32 29.9
2004-07-29 10:18:42 51°23.773 2°40.8 36.2 15.1 31 29
2004-07-29 10:18:46 51°23.787 2°40.814 35.5 15.1 31 31.1
2004-07-29 10:18:52 51°23.809 2°40.835 35.2 15.2 31 31.5
2004-07-29 10:18:57 51°23.827 2°40.852 34.9 15.2 31 31.4
2004-07-29 10:19:01 51°23.841 2°40.866 34.8 15.2 31 31.1
2004-07-29 10:19:06 51°23.859 2°40.884 34.9 15.2 31 31.2
2004-07-29 10:19:12 51°23.88 2°40.904 34.9 15.2 32 30.8
2004-07-29 10:19:15 51°23.891 2°40.915 34.8 15.1 31 29.5
2004-07-29 10:19:22 51°23.917 2°40.938 34.5 15.1 30 27.8
2004-07-29 10:19:27 51°23.935 2°40.955 33.7 15.1 30 26.6
2004-07-29 10:19:32 51°23.954 2°40.971 33.1 15.2 29 30.7
2004-07-29 10:19:36 51°23.968 2°40.984 32.6 15.1 29 31
2004-07-29 10:19:42 51°23.99 2°41.004 32.5 15.1 29 31.3
2004-07-29 10:19:45 51°24.001 2°41.013 32.6 15.1 29 31.5
2004-07-29 10:19:52 51°24.027 2°41.037 32.8 15.2 29 31.2
2004-07-29 10:19:57 51°24.045 2°41.053 33.3 15.2 30 29.9
2004-07-29 10:20:02 51°24.064 2°41.07 33.4 15.2 30 28.8
2004-07-29 10:20:05 51°24.075 2°41.08 33.6 15.2 30 29.4
2004-07-29 10:20:12 51°24.101 2°41.104 33.5 15.2 30 31.3
2004-07-29 10:20:17 51°24.119 2°41.121 33.4 15.2 30 30.6
2004-07-29 10:20:22 51°24.137 2°41.137 33.3 15.2 29 30
2004-07-29 10:20:25 51°24.149 2°41.147 33.1 15.2 29 29.9
2004-07-29 10:20:32 51°24.174 2°41.17 32.6 15.3 29 29
2004-07-29 10:20:37 51°24.193 2°41.186 32.3 15.2 30 27.9
2004-07-29 10:20:42 51°24.21 2°41.204 33.1 15.2 30 27.9
2004-07-29 10:20:45 51°24.221 2°41.214 33.8 15.2 31 27.7
2004-07-29 10:20:52 51°24.246 2°41.239 34.8 15.2 32 30.6
2004-07-29 10:20:57 51°24.264 2°41.256 35.1 15.2 31 30.4
2004-07-29 10:21:02 51°24.282 2°41.274 35.1 15.2 32 29.7
2004-07-29 10:21:05 51°24.293 2°41.285 35.3 15.2 31 28.8
2004-07-29 10:21:12 51°24.319 2°41.31 35.4 15.2 32 27.7
2004-07-29 10:21:17 51°24.337 2°41.327 35.1 15.2 31 25.9
2004-07-29 10:21:22 51°24.355 2°41.345 35.1 15.2 31 24.2
2004-07-29 10:21:25 51°24.366 2°41.355 34.6 15.2 31 28.3
2004-07-29 10:21:32 51°24.391 2°41.379 34.4 15.3 31 29.5
2004-07-29 10:21:37 51°24.409 2°41.397 34.3 15.2 31 29.9
2004-07-29 10:21:42 51°24.428 2°41.414 34.1 15.2 31 29.8
2004-07-29 10:21:45 51°24.439 2°41.424 34.1 15.3 31 28.7
2004-07-29 10:21:52 51°24.464 2°41.449 34.1 15.3 30 27.6
2004-07-29 10:21:57 51°24.483 2°41.466 33.9 15.2 30 23.4
2004-07-29 10:22:02 51°24.501 2°41.483 33.5 15.2 30 27.7
2004-07-29 10:22:05 51°24.512 2°41.493 33.4 15.2 30 29.6
2004-07-29 10:22:12 51°24.537 2°41.517 33.4 15.2 30 30.4
2004-07-29 10:22:17 51°24.556 2°41.534 33.8 15.1 31 28.6
2004-07-29 10:22:22 51°24.574 2°41.551 34 15.1 31 28.4
2004-07-29 10:22:25 51°24.584 2°41.562 34.4 15.1 31 29.7
2004-07-29 10:22:32 51°24.609 2°41.586 34.8 15.1 32 28.8
2004-07-29 10:22:37 51°24.627 2°41.604 34.9 15.1 31 27.8
2004-07-29 10:22:42 51°24.645 2°41.621 34.8 15.1 31 27.8
2004-07-29 10:22:45 51°24.656 2°41.631 34.2 15.1 30 26
2004-07-29 10:22:52 51°24.682 2°41.655 33.6 15.1 30 25.4
2004-07-29 10:22:57 51°24.7 2°41.671 33.2 15.1 30 28.3
2004-07-29 10:23:02 51°24.718 2°41.688 33.3 15 30 28.2
2004-07-29 10:23:05 51°24.729 2°41.698 33.5 15.1 30 27.8
2004-07-29 10:23:12 51°24.754 2°41.722 33.9 15.1 31 24.1
2004-07-29 10:23:17 51°24.772 2°41.739 34.1 15.1 31 26.8
2004-07-29 10:23:22 51°24.79 2°41.757 34 15.1 31 28.7
2004-07-29 10:23:25 51°24.801 2°41.767 34.1 15.1 31 29
2004-07-29 10:23:32 51°24.826 2°41.791 34.1 15.1 30 28.8
2004-07-29 10:23:37 51°24.844 2°41.808 33.8 15 30 27.7
2004-07-29 10:23:42 51°24.862 2°41.825 33.7 15 30 24.8
2004-07-29 10:23:45 51°24.873 2°41.835 33.5 15 30 26
2004-07-29 10:23:52 51°24.898 2°41.858 33.3 15.1 30 26.2
2004-07-29 10:23:57 51°24.917 2°41.874 32.9 15 29 26.6
2004-07-29 10:24:02 51°24.935 2°41.891 32.6 15 29 27.7
2004-07-29 10:24:05 51°24.946 2°41.901 32.6 15 30 26.7
2004-07-29 10:24:12 51°24.971 2°41.925 33 15.1 31 28
2004-07-29 10:24:17 51°24.988 2°41.942 34.7 15.1 32 27.5
2004-07-29 10:24:22 51°25.006 2°41.96 35.5 15.1 32 25.4
2004-07-29 10:24:25 51°25.017 2°41.971 36.1 15 33 27.7
2004-07-29 10:24:32 51°25.041 2°41.997 36.6 15.1 34 28
2004-07-29 10:24:37 51°25.058 2°42.016 37.4 15 34 25.7
2004-07-29 10:24:42 51°25.076 2°42.034 37.6 15 33 27.8
2004-07-29 10:24:45 51°25.086 2°42.045 36.9 15 33 27.3
2004-07-29 10:24:52 51°25.11 2°42.07 36.6 14.9 33 26
2004-07-29 10:24:57 51°25.128 2°42.089 36.6 15 33 27.5
2004-07-29 10:25:02 51°25.145 2°42.107 36.6 15 33 24.5
2004-07-29 10:25:07 51°25.162 2°42.125 37 15 34 28
2004-07-29 10:25:12 51°25.18 2°42.144 37.3 15 34 28.1
2004-07-29 10:25:17 51°25.197 2°42.162 37.4 14.9 33 24.3
2004-07-29 10:25:22 51°25.214 2°42.18 37.3 14.9 33 27.2
2004-07-29 10:25:27 51°25.232 2°42.198 37 14.9 34 25.7
2004-07-29 10:25:32 51°25.249 2°42.216 36.9 15 33 28
2004-07-29 10:25:36 51°25.263 2°42.231 36.7 14.9 33 28.8
2004-07-29 10:25:42 51°25.284 2°42.252 36.4 14.9 33 28.4
2004-07-29 10:25:45 51°25.294 2°42.263 36.2 14.9 32 27.1
2004-07-29 10:25:52 51°25.319 2°42.287 35.9 14.9 32 26.1
2004-07-29 10:25:57 51°25.336 2°42.305 35.8 14.9 32 27.7
2004-07-29 10:26:01 51°25.35 2°42.319 35.8 14.9 32 28.2
2004-07-29 10:26:06 51°25.368 2°42.336 35.9 14.9 32 25.7
2004-07-29 10:26:12 51°25.389 2°42.358 35.8 14.9 33 27
2004-07-29 10:26:15 51°25.399 2°42.368 36.2 14.9 33 28.4
2004-07-29 10:26:22 51°25.423 2°42.393 36.3 14.9 33 27.3
2004-07-29 10:26:24 51°25.431 2°42.401 36.3 15 33 25
2004-07-29 10:26:32 51°25.459 2°42.429 36.2 14.9 32 27
2004-07-29 10:26:37 51°25.476 2°42.447 35.9 15 32 26.9
2004-07-29 10:26:42 51°25.494 2°42.464 35.5 15 32 27.7
2004-07-29 10:26:45 51°25.505 2°42.474 34.8 14.9 31 28.2
2004-07-29 10:26:52 51°25.53 2°42.498 34.3 15 31 28.1
2004-07-29 10:26:57 51°25.547 2°42.515 34 15 31 26.1
2004-07-29 10:27:02 51°25.565 2°42.531 33.9 15 31 27.8
2004-07-29 10:27:06 51°25.58 2°42.545 33.8 15 30 27.7
2004-07-29 10:27:12 51°25.601 2°42.565 33.5 15 30 26.6
2004-07-29 10:27:16 51°25.615 2°42.579 34.4 15 32 26.2
2004-07-29 10:27:22 51°25.637 2°42.601 35.2 15 32 27
2004-07-29 10:27:25 51°25.647 2°42.612 35.7 15 33 26.3
2004-07-29 10:27:32 51°25.671 2°42.637 36.2 15 33 24.8
2004-07-29 10:27:34 51°25.679 2°42.644 36.6 15.1 33 25.2
2004-07-29 10:27:46 51°25.721 2°42.687 36.2 15 32 27.8
2004-07-29 10:27:52 51°25.742 2°42.709 35.6 15 32 28
2004-07-29 10:27:57 51°25.76 2°42.727 35.5 15 32 27
2004-07-29 10:28:02 51°25.777 2°42.744 35.5 15 32 27.8
2004-07-29 10:28:05 51°25.788 2°42.755 35.9 15.1 33 28.1
2004-07-29 10:28:12 51°25.812 2°42.78 36.1 15.1 33 27.8
2004-07-29 10:28:16 51°25.827 2°42.795 36.3 15.1 33 26.7
2004-07-29 10:28:22 51°25.848 2°42.816 36.4 15.1 32 26.6
2004-07-29 10:28:26 51°25.862 2°42.831 35.9 15 32 28.2
2004-07-29 10:28:32 51°25.883 2°42.851 35.4 15 31 28
2004-07-29 10:28:37 51°25.901 2°42.869 34.9 15.1 31 27.5
2004-07-29 10:28:42 51°25.919 2°42.886 34.5 15 31 27.4
2004-07-29 10:28:46 51°25.933 2°42.9 34.2 15.1 32 26.2
2004-07-29 10:28:52 51°25.955 2°42.921 34.8 15.1 32 26.9
2004-07-29 10:28:57 51°25.972 2°42.939 35.1 15 32 28
2004-07-29 10:29:02 51°25.99 2°42.957 35.5 15 32 28.2
2004-07-29 10:29:05 51°26.001 2°42.967 35.7 15 32 27.6
2004-07-29 10:29:12 51°26.025 2°42.992 35.5 15 32 26.8
2004-07-29 10:29:17 51°26.043 2°43.01 35.8 14.9 33 24.7
2004-07-29 10:29:22 51°26.06 2°43.028 35.8 15 33 25.9